createdAt,value
2017-12-31T00:00:43.706Z,99.90
2017-12-31T00:03:10.646Z,99.90
2017-12-31T00:05:37.522Z,99.90
2017-12-31T00:08:04.454Z,99.90
2017-12-31T00:10:31.312Z,99.90
2017-12-31T00:12:58.267Z,99.90
2017-12-31T00:15:25.948Z,99.90
2017-12-31T00:17:52.802Z,99.90
2017-12-31T00:20:19.736Z,99.90
2017-12-31T00:22:46.631Z,99.90
2017-12-31T00:25:13.492Z,99.90
2017-12-31T00:27:40.438Z,99.90
2017-12-31T00:30:07.334Z,99.90
2017-12-31T00:32:34.355Z,99.90
2017-12-31T00:35:02.028Z,99.90
2017-12-31T00:37:28.918Z,99.90
2017-12-31T00:39:55.866Z,99.90
2017-12-31T00:42:22.811Z,99.90
2017-12-31T00:44:49.741Z,99.90
2017-12-31T00:47:16.598Z,99.90
2017-12-31T00:49:43.484Z,99.90
2017-12-31T00:52:10.410Z,99.90
2017-12-31T00:54:37.353Z,99.90
2017-12-31T00:57:04.239Z,99.90
2017-12-31T00:59:31.080Z,99.90
2017-12-31T01:01:58.023Z,99.90
2017-12-31T01:04:25.657Z,99.90
2017-12-31T01:06:52.514Z,99.90
2017-12-31T01:09:20.198Z,99.90
2017-12-31T01:11:47.075Z,99.90
2017-12-31T01:14:13.993Z,99.90
2017-12-31T01:16:40.967Z,99.90
2017-12-31T01:19:07.815Z,99.90
2017-12-31T01:21:34.768Z,99.90
2017-12-31T01:24:01.638Z,99.90
2017-12-31T01:26:28.605Z,99.90
2017-12-31T01:28:55.596Z,99.90
2017-12-31T01:31:22.576Z,99.90
2017-12-31T01:33:57.750Z,99.90
2017-12-31T01:36:39.171Z,99.90
2017-12-31T01:39:21.612Z,99.90
2017-12-31T01:41:55.289Z,99.90
2017-12-31T01:44:22.444Z,99.90
2017-12-31T01:46:49.428Z,99.90
2017-12-31T01:49:17.039Z,99.90
2017-12-31T01:51:54.063Z,99.90
2017-12-31T01:54:22.336Z,99.90
2017-12-31T01:56:49.272Z,99.90
2017-12-31T01:59:16.141Z,99.90
2017-12-31T02:01:43.819Z,99.90
2017-12-31T02:04:11.432Z,99.90
2017-12-31T02:06:50.500Z,99.90
2017-12-31T02:09:29.625Z,99.90
2017-12-31T02:12:11.838Z,99.90
2017-12-31T02:14:55.054Z,99.90
2017-12-31T02:17:44.318Z,99.90
2017-12-31T02:20:14.105Z,99.90
2017-12-31T02:22:41.075Z,99.90
2017-12-31T02:25:09.240Z,99.90
2017-12-31T02:27:37.450Z,99.90
2017-12-31T02:30:20.614Z,99.90
2017-12-31T02:32:49.524Z,99.90
2017-12-31T02:35:19.159Z,99.90
2017-12-31T02:37:46.222Z,99.90
2017-12-31T02:43:07.427Z,99.90
2017-12-31T02:45:39.280Z,99.90
2017-12-31T02:48:06.206Z,99.90
2017-12-31T02:50:33.124Z,99.90
2017-12-31T02:53:00.048Z,99.90
2017-12-31T02:55:26.994Z,99.90
2017-12-31T02:57:54.632Z,99.90
2017-12-31T03:00:21.595Z,99.90
2017-12-31T03:02:48.461Z,99.90
2017-12-31T03:05:18.600Z,99.90
2017-12-31T03:07:48.990Z,99.90
2017-12-31T03:10:20.769Z,99.90
2017-12-31T03:13:05.384Z,99.90
2017-12-31T03:15:43.905Z,99.90
2017-12-31T03:18:11.719Z,99.90
2017-12-31T03:20:39.511Z,99.90
2017-12-31T03:23:07.594Z,99.90
2017-12-31T03:25:50.129Z,99.90
2017-12-31T03:28:26.443Z,99.90
2017-12-31T03:31:08.257Z,99.90
2017-12-31T03:33:48.842Z,99.90
2017-12-31T03:36:32.097Z,99.90
2017-12-31T03:39:00.071Z,99.90
2017-12-31T03:41:39.316Z,99.90
2017-12-31T03:44:18.730Z,99.90
2017-12-31T03:46:58.476Z,99.90
2017-12-31T03:49:41.161Z,99.90
2017-12-31T03:52:26.501Z,99.90
2017-12-31T03:55:08.275Z,99.90
2017-12-31T03:57:48.280Z,99.90
2017-12-31T04:00:29.544Z,99.90
2017-12-31T04:03:11.112Z,99.90
2017-12-31T04:05:51.826Z,99.90
2017-12-31T04:08:34.839Z,99.90
2017-12-31T04:11:18.043Z,99.90
2017-12-31T04:13:45.759Z,99.90
2017-12-31T04:16:12.730Z,99.90
2017-12-31T04:18:39.580Z,99.90
2017-12-31T04:21:06.524Z,99.90
2017-12-31T04:23:46.195Z,99.90
2017-12-31T04:26:25.739Z,99.90
2017-12-31T04:29:04.263Z,99.90
2017-12-31T04:31:46.961Z,99.90
2017-12-31T04:34:27.705Z,99.90
2017-12-31T04:39:51.196Z,99.90
2017-12-31T04:42:29.602Z,99.90
2017-12-31T04:47:59.294Z,99.90
2017-12-31T04:53:25.855Z,99.90
2017-12-31T04:58:52.049Z,99.90
2017-12-31T05:01:32.037Z,99.90
2017-12-31T05:03:59.163Z,99.90
2017-12-31T05:06:41.176Z,99.90
2017-12-31T05:09:24.192Z,99.90
2017-12-31T05:12:06.226Z,99.90
2017-12-31T05:14:45.236Z,99.90
2017-12-31T05:20:08.884Z,99.90
2017-12-31T05:22:51.920Z,99.90
2017-12-31T05:25:33.312Z,99.90
2017-12-31T05:28:14.491Z,99.90
2017-12-31T05:30:56.901Z,99.90
2017-12-31T05:33:39.484Z,99.90
2017-12-31T05:36:21.519Z,99.90
2017-12-31T05:41:45.988Z,99.90
2017-12-31T05:44:28.276Z,99.90
2017-12-31T05:47:11.224Z,99.90
2017-12-31T05:49:51.781Z,99.90
2017-12-31T05:52:31.210Z,99.90
2017-12-31T05:55:08.778Z,99.90
2017-12-31T05:57:49.138Z,99.90
2017-12-31T06:00:29.856Z,99.90
2017-12-31T06:03:11.318Z,99.90
2017-12-31T06:08:33.779Z,99.90
2017-12-31T06:11:16.192Z,99.90
2017-12-31T06:13:56.446Z,99.90
2017-12-31T06:16:36.943Z,99.90
2017-12-31T06:21:57.929Z,99.90
2017-12-31T06:24:38.745Z,99.90
2017-12-31T06:27:20.196Z,99.90
2017-12-31T06:30:01.934Z,99.90
2017-12-31T06:32:44.325Z,99.90
2017-12-31T06:35:24.336Z,99.90
2017-12-31T06:38:04.103Z,99.90
2017-12-31T06:40:44.384Z,99.90
2017-12-31T06:43:25.772Z,99.90
2017-12-31T06:46:06.871Z,99.90
2017-12-31T06:51:34.429Z,99.90
2017-12-31T06:54:16.741Z,99.90
2017-12-31T06:56:58.957Z,99.90
2017-12-31T06:59:42.688Z,99.90
2017-12-31T07:02:22.063Z,99.90
2017-12-31T07:05:05.714Z,99.90
2017-12-31T07:07:44.800Z,99.90
2017-12-31T07:10:23.851Z,99.90
2017-12-31T07:13:01.477Z,99.90
2017-12-31T07:15:40.769Z,99.90
2017-12-31T07:18:18.366Z,99.90
2017-12-31T07:20:59.424Z,99.90
2017-12-31T07:23:40.991Z,99.90
2017-12-31T07:29:07.384Z,99.90
2017-12-31T07:31:49.826Z,99.90
2017-12-31T07:34:32.711Z,99.90
2017-12-31T07:37:12.400Z,99.90
2017-12-31T07:39:55.762Z,99.90
2017-12-31T07:42:38.273Z,99.90
2017-12-31T07:45:23.065Z,99.90
2017-12-31T07:48:03.100Z,99.90
2017-12-31T07:50:45.270Z,99.90
2017-12-31T07:53:25.805Z,99.90
2017-12-31T07:56:06.490Z,99.90
2017-12-31T07:58:48.406Z,99.90
2017-12-31T08:01:32.466Z,99.90
2017-12-31T08:04:15.456Z,99.90
2017-12-31T08:06:55.273Z,99.90
2017-12-31T08:12:21.024Z,99.90
2017-12-31T08:15:04.747Z,99.90
2017-12-31T08:17:45.152Z,99.90
2017-12-31T08:20:23.002Z,99.90
2017-12-31T08:23:02.547Z,99.90
2017-12-31T08:25:45.205Z,99.90
2017-12-31T08:28:26.487Z,99.90
2017-12-31T08:31:07.331Z,99.90
2017-12-31T08:33:47.197Z,99.90
2017-12-31T08:36:27.767Z,99.90
2017-12-31T08:39:09.257Z,99.90
2017-12-31T08:41:48.057Z,99.90
2017-12-31T08:44:29.212Z,99.90
2017-12-31T08:47:12.189Z,99.90
2017-12-31T08:49:55.076Z,99.90
2017-12-31T08:52:33.670Z,99.90
2017-12-31T08:55:13.831Z,99.90
2017-12-31T09:00:42.940Z,99.90
2017-12-31T09:06:10.121Z,99.90
2017-12-31T09:08:51.785Z,99.90
2017-12-31T09:11:32.361Z,99.90
2017-12-31T09:14:11.613Z,99.90
2017-12-31T09:16:53.451Z,99.90
2017-12-31T09:19:36.504Z,99.90
2017-12-31T09:22:16.253Z,99.90
2017-12-31T09:24:58.241Z,99.90
2017-12-31T09:27:39.528Z,99.90
2017-12-31T09:35:48.392Z,99.90
2017-12-31T09:38:24.945Z,99.90
2017-12-31T09:41:05.390Z,99.90
2017-12-31T09:43:45.950Z,99.90
2017-12-31T09:46:27.462Z,99.90
2017-12-31T09:51:49.118Z,99.90
2017-12-31T09:54:31.480Z,99.90
2017-12-31T09:57:11.428Z,99.90
2017-12-31T10:05:16.306Z,99.90
2017-12-31T10:07:56.703Z,99.90
2017-12-31T10:10:36.447Z,99.90
2017-12-31T10:13:15.554Z,99.90
2017-12-31T10:15:55.243Z,99.90
2017-12-31T10:18:36.562Z,99.90
2017-12-31T10:23:57.463Z,99.90
2017-12-31T10:26:35.168Z,99.90
2017-12-31T10:29:16.799Z,99.90
2017-12-31T10:32:03.608Z,99.90
2017-12-31T10:34:47.072Z,99.90
2017-12-31T10:37:29.898Z,99.90
2017-12-31T10:40:07.778Z,99.90
2017-12-31T10:42:47.873Z,99.90
2017-12-31T10:45:29.750Z,99.90
2017-12-31T10:48:12.510Z,99.90
2017-12-31T10:53:34.516Z,99.90
2017-12-31T10:56:14.154Z,99.90
2017-12-31T10:58:53.597Z,99.90
2017-12-31T11:01:36.439Z,99.90
2017-12-31T11:04:21.167Z,99.90
2017-12-31T11:06:59.758Z,99.90
2017-12-31T11:09:40.538Z,99.90
2017-12-31T11:12:23.985Z,99.90
2017-12-31T11:15:04.705Z,99.90
2017-12-31T11:17:46.519Z,99.90
2017-12-31T11:20:27.926Z,99.90
2017-12-31T11:23:09.976Z,99.90
2017-12-31T11:25:52.677Z,99.90
2017-12-31T11:31:20.173Z,99.90
2017-12-31T11:34:02.779Z,99.90
2017-12-31T11:36:44.883Z,99.90
2017-12-31T11:39:24.986Z,99.90
2017-12-31T11:42:07.213Z,99.90
2017-12-31T11:44:46.089Z,99.90
2017-12-31T11:47:26.629Z,99.90
2017-12-31T11:50:06.027Z,99.90
2017-12-31T11:52:43.921Z,99.90
2017-12-31T11:55:24.633Z,99.90
2017-12-31T11:58:05.913Z,99.90
2017-12-31T12:00:46.458Z,99.90
2017-12-31T12:03:26.841Z,99.90
2017-12-31T12:06:09.278Z,99.90
2017-12-31T12:08:36.655Z,99.90
2017-12-31T12:14:00.262Z,99.90
2017-12-31T12:16:42.578Z,99.90
2017-12-31T12:19:11.238Z,99.90
2017-12-31T12:21:38.189Z,99.90
2017-12-31T12:24:05.279Z,99.90
2017-12-31T12:26:32.282Z,99.90
2017-12-31T12:29:10.350Z,99.90
2017-12-31T12:31:42.251Z,99.90
2017-12-31T12:34:20.784Z,99.90
2017-12-31T12:36:58.676Z,99.90
2017-12-31T12:39:36.559Z,99.90
2017-12-31T12:42:17.464Z,99.90
2017-12-31T12:44:58.552Z,99.90
2017-12-31T12:47:38.692Z,99.90
2017-12-31T12:50:20.531Z,99.90
2017-12-31T12:53:01.536Z,99.90
2017-12-31T12:55:46.367Z,99.90
2017-12-31T12:58:24.217Z,99.90
2017-12-31T13:01:03.109Z,99.90
2017-12-31T13:03:44.939Z,99.90
2017-12-31T13:06:22.766Z,99.90
2017-12-31T13:09:01.060Z,99.90
2017-12-31T13:11:41.232Z,99.90
2017-12-31T13:14:10.504Z,99.90
2017-12-31T13:16:47.761Z,99.90
2017-12-31T13:19:22.868Z,99.90
2017-12-31T13:22:01.568Z,99.90
2017-12-31T13:24:43.009Z,99.90
2017-12-31T13:27:21.659Z,99.90
2017-12-31T13:30:01.946Z,99.90
2017-12-31T13:32:30.800Z,99.90
2017-12-31T13:34:59.836Z,99.90
2017-12-31T13:37:40.309Z,99.90
2017-12-31T13:40:20.357Z,99.90
2017-12-31T13:43:01.273Z,99.90
2017-12-31T13:45:42.625Z,99.90
2017-12-31T13:48:23.841Z,99.90
2017-12-31T13:51:04.091Z,99.90
2017-12-31T13:53:43.936Z,99.90
2017-12-31T13:56:21.849Z,99.90
2017-12-31T13:59:04.618Z,99.90
2017-12-31T14:01:43.733Z,99.90
2017-12-31T14:04:11.622Z,99.90
2017-12-31T14:09:38.011Z,99.90
2017-12-31T14:12:06.680Z,99.90
2017-12-31T14:14:33.928Z,99.90
2017-12-31T14:17:07.083Z,99.90
2017-12-31T14:19:34.751Z,99.90
2017-12-31T14:22:03.204Z,99.90
2017-12-31T14:24:45.911Z,99.90
2017-12-31T14:27:15.664Z,99.90
2017-12-31T14:29:43.313Z,99.90
2017-12-31T14:32:22.989Z,99.90
2017-12-31T14:34:51.124Z,99.90
2017-12-31T14:37:22.925Z,99.90
2017-12-31T14:40:03.539Z,99.90
2017-12-31T14:42:34.679Z,99.90
2017-12-31T14:45:05.743Z,99.90
2017-12-31T14:47:37.635Z,99.90
2017-12-31T14:50:04.890Z,99.90
2017-12-31T14:52:34.443Z,99.90
2017-12-31T14:55:10.351Z,99.90
2017-12-31T14:57:39.566Z,99.90
2017-12-31T15:00:06.910Z,99.90
2017-12-31T15:02:47.413Z,99.90
2017-12-31T15:05:29.624Z,99.90
2017-12-31T15:08:10.241Z,99.90
2017-12-31T15:10:52.370Z,99.90
2017-12-31T15:13:25.151Z,99.90
2017-12-31T15:15:59.125Z,99.90
2017-12-31T15:18:39.945Z,99.90
2017-12-31T15:21:07.987Z,99.90
2017-12-31T15:23:35.119Z,99.90
2017-12-31T15:26:02.293Z,99.90
2017-12-31T15:28:43.575Z,99.90
2017-12-31T15:31:25.156Z,99.90
2017-12-31T15:34:05.548Z,99.90
2017-12-31T15:36:47.494Z,99.90
2017-12-31T15:39:28.899Z,99.90
2017-12-31T15:41:57.103Z,99.90
2017-12-31T15:44:24.484Z,99.90
2017-12-31T15:46:51.914Z,99.90
2017-12-31T15:49:19.866Z,99.90
2017-12-31T15:52:01.646Z,99.90
2017-12-31T15:54:43.255Z,99.90
2017-12-31T15:57:25.564Z,99.90
2017-12-31T16:02:40.162Z,99.90
2017-12-31T16:05:15.320Z,99.90
2017-12-31T16:07:42.669Z,99.90
2017-12-31T16:10:09.784Z,99.90
2017-12-31T16:12:52.021Z,99.90
2017-12-31T16:15:24.982Z,99.90
2017-12-31T16:17:59.286Z,99.90
2017-12-31T16:20:38.579Z,99.90
2017-12-31T16:23:06.660Z,99.90
2017-12-31T16:25:40.228Z,99.90
2017-12-31T16:28:07.114Z,99.90
2017-12-31T16:30:34.889Z,99.90
2017-12-31T16:33:02.961Z,99.90
2017-12-31T16:35:30.139Z,99.90
2017-12-31T16:37:57.760Z,99.90
2017-12-31T16:40:32.828Z,99.90
2017-12-31T16:43:00.652Z,99.90
2017-12-31T16:45:42.079Z,99.90
2017-12-31T16:48:24.105Z,99.90
2017-12-31T16:50:51.976Z,99.90
2017-12-31T16:53:21.697Z,99.90
2017-12-31T16:56:01.372Z,99.90
2017-12-31T16:58:29.224Z,99.90
2017-12-31T17:00:59.742Z,99.90
2017-12-31T17:03:28.503Z,99.90
2017-12-31T17:06:01.024Z,99.90
2017-12-31T17:08:28.051Z,99.90
2017-12-31T17:10:55.888Z,99.90
2017-12-31T17:13:32.910Z,99.90
2017-12-31T17:16:12.174Z,99.90
2017-12-31T17:18:51.652Z,99.90
2017-12-31T17:21:20.046Z,99.90
2017-12-31T17:23:48.250Z,99.90
2017-12-31T17:26:27.430Z,99.90
2017-12-31T17:29:06.876Z,99.90
2017-12-31T17:31:47.985Z,99.90
2017-12-31T17:34:15.039Z,99.90
2017-12-31T17:36:50.351Z,99.80
2017-12-31T17:39:20.589Z,99.80
2017-12-31T17:41:58.994Z,99.60
2017-12-31T17:44:33.217Z,99.30
2017-12-31T17:47:00.352Z,99.40
2017-12-31T17:49:39.857Z,98.70
2017-12-31T17:52:18.462Z,98.70
2017-12-31T17:54:54.552Z,98.80
2017-12-31T17:57:21.480Z,98.50
2017-12-31T18:00:02.170Z,98.60
2017-12-31T18:02:34.167Z,98.30
2017-12-31T18:05:05.594Z,98.20
2017-12-31T18:07:32.566Z,97.90
2017-12-31T18:10:05.061Z,97.90
2017-12-31T18:12:32.130Z,97.70
2017-12-31T18:14:59.109Z,97.60
2017-12-31T18:17:28.758Z,97.80
2017-12-31T18:19:56.661Z,97.60
2017-12-31T18:22:23.751Z,97.70
2017-12-31T18:24:50.750Z,97.50
2017-12-31T18:27:24.840Z,97.60
2017-12-31T18:29:57.585Z,97.50
2017-12-31T18:32:29.947Z,97.50
2017-12-31T18:34:56.962Z,97.40
2017-12-31T18:37:25.305Z,97.60
2017-12-31T18:40:01.000Z,97.30
2017-12-31T18:42:27.926Z,97.30
2017-12-31T18:44:59.835Z,97.10
2017-12-31T18:47:33.304Z,97.10
2017-12-31T18:50:02.556Z,97.30
2017-12-31T18:52:36.898Z,97.10
2017-12-31T18:55:04.680Z,97.30
2017-12-31T18:57:31.760Z,97.30
2017-12-31T18:59:58.646Z,97.30
2017-12-31T19:02:26.319Z,96.40
2017-12-31T19:04:54.065Z,96.70
2017-12-31T19:07:21.125Z,96.70
2017-12-31T19:09:48.987Z,96.70
2017-12-31T19:12:16.727Z,96.60
2017-12-31T19:14:43.771Z,96.60
2017-12-31T19:17:10.782Z,96.70
2017-12-31T19:19:37.768Z,96.50
2017-12-31T19:22:04.742Z,96.40
2017-12-31T19:24:32.604Z,96.20
2017-12-31T19:26:59.526Z,96.20
2017-12-31T19:29:26.531Z,96.30
2017-12-31T19:31:53.532Z,96.00
2017-12-31T19:34:21.086Z,96.00
2017-12-31T19:36:48.120Z,96.00
2017-12-31T19:39:15.052Z,95.90
2017-12-31T19:41:42.134Z,95.50
2017-12-31T19:44:09.151Z,97.40
2017-12-31T19:46:36.161Z,95.60
2017-12-31T19:49:03.198Z,95.40
2017-12-31T19:51:30.191Z,95.30
2017-12-31T19:53:57.295Z,95.20
2017-12-31T19:56:25.063Z,95.30
2017-12-31T19:58:52.072Z,95.10
2017-12-31T20:01:19.066Z,95.10
2017-12-31T20:03:47.062Z,95.30
2017-12-31T20:06:14.078Z,95.00
2017-12-31T20:08:41.798Z,95.00
2017-12-31T20:11:08.746Z,95.20
2017-12-31T20:13:35.749Z,95.00
2017-12-31T20:16:03.466Z,94.50
2017-12-31T20:18:30.595Z,94.60
2017-12-31T20:20:57.507Z,94.80
2017-12-31T20:23:24.563Z,94.80
2017-12-31T20:25:52.283Z,94.60
2017-12-31T20:28:19.209Z,94.50
2017-12-31T20:30:46.235Z,94.70
2017-12-31T20:33:13.306Z,94.70
2017-12-31T20:35:40.391Z,94.80
2017-12-31T20:38:07.498Z,94.70
2017-12-31T20:40:35.511Z,94.70
2017-12-31T20:43:03.257Z,94.70
2017-12-31T20:45:31.186Z,94.70
2017-12-31T20:47:58.346Z,94.70
2017-12-31T20:50:25.353Z,94.40
2017-12-31T20:52:53.226Z,94.50
2017-12-31T20:55:23.607Z,94.50
2017-12-31T20:57:50.664Z,94.40
2017-12-31T21:00:17.680Z,94.30
2017-12-31T21:02:44.766Z,94.40
2017-12-31T21:05:14.364Z,94.20
2017-12-31T21:07:41.487Z,94.20
2017-12-31T21:10:08.379Z,94.20
2017-12-31T21:12:35.529Z,94.30
2017-12-31T21:15:02.443Z,94.00
2017-12-31T21:17:29.599Z,94.00
2017-12-31T21:19:56.715Z,94.20
2017-12-31T21:22:23.747Z,94.20
2017-12-31T21:24:50.787Z,94.20
2017-12-31T21:27:17.867Z,94.20
2017-12-31T21:29:45.650Z,94.10
2017-12-31T21:32:12.630Z,94.10
2017-12-31T21:34:39.671Z,94.10
2017-12-31T21:37:06.610Z,94.00
2017-12-31T21:39:33.620Z,94.30
2017-12-31T21:42:01.292Z,94.40
2017-12-31T21:44:33.117Z,94.40
2017-12-31T21:47:00.353Z,94.30
2017-12-31T21:49:27.368Z,94.40
2017-12-31T21:51:54.247Z,94.50
2017-12-31T21:54:21.289Z,94.70
2017-12-31T21:56:48.240Z,94.60
2017-12-31T21:59:15.118Z,94.50
2017-12-31T22:01:42.212Z,94.50
2017-12-31T22:04:09.224Z,94.40
2017-12-31T22:06:37.090Z,94.70
2017-12-31T22:09:04.859Z,94.80
2017-12-31T22:11:32.662Z,94.90
2017-12-31T22:13:59.783Z,94.90
2017-12-31T22:16:26.793Z,95.10
2017-12-31T22:18:53.764Z,95.20
2017-12-31T22:21:20.939Z,95.20
2017-12-31T22:23:48.299Z,95.30
2017-12-31T22:26:17.666Z,95.20
2017-12-31T22:28:44.735Z,95.40
2017-12-31T22:31:12.675Z,95.40
2017-12-31T22:33:39.708Z,95.60
2017-12-31T22:36:06.706Z,95.60
2017-12-31T22:38:33.787Z,95.60
2017-12-31T22:41:00.803Z,95.70
2017-12-31T22:43:27.832Z,95.80
2017-12-31T22:45:54.790Z,96.00
2017-12-31T22:48:35.068Z,96.00
2017-12-31T22:51:16.307Z,96.10
2017-12-31T22:53:58.632Z,96.10
2017-12-31T22:56:40.096Z,96.10
2017-12-31T23:02:07.376Z,96.50
2017-12-31T23:07:34.345Z,96.30
2017-12-31T23:15:51.408Z,97.00
2017-12-31T23:18:32.359Z,97.30
2017-12-31T23:21:09.578Z,97.30
2017-12-31T23:29:21.342Z,97.80
2017-12-31T23:32:03.517Z,98.00
2017-12-31T23:34:48.577Z,97.90
2017-12-31T23:37:29.140Z,97.90
2017-12-31T23:40:15.667Z,98.30
2017-12-31T23:42:58.011Z,98.30
2017-12-31T23:45:42.788Z,98.50
2017-12-31T23:48:24.824Z,98.40
2017-12-31T23:53:49.147Z,98.60
2017-12-31T23:56:33.470Z,98.60
2017-12-31T23:59:17.613Z,98.80
